sensor_id;sensor_type;location;lat;lon;timestamp;pressure;altitude;pressure_sealevel;temperature;humidity
33075;BME280;19433;51.292;6.868;2022-07-06T00:01:43;101300.78;;;13.80;74.28
33075;BME280;19433;51.292;6.868;2022-07-06T00:04:08;101313.59;;;13.74;75.25
33075;BME280;19433;51.292;6.868;2022-07-06T00:06:34;101307.59;;;13.70;74.77
33075;BME280;19433;51.292;6.868;2022-07-06T00:09:00;101302.63;;;13.66;74.79
33075;BME280;19433;51.292;6.868;2022-07-06T00:11:25;101309.91;;;13.67;74.85
33075;BME280;19433;51.292;6.868;2022-07-06T00:13:51;101315.88;;;13.64;74.80
33075;BME280;19433;51.292;6.868;2022-07-06T00:16:17;101311.94;;;13.52;76.14
33075;BME280;19433;51.292;6.868;2022-07-06T00:18:42;101307.19;;;13.46;75.18
33075;BME280;19433;51.292;6.868;2022-07-06T00:21:08;101293.75;;;13.43;75.16
33075;BME280;19433;51.292;6.868;2022-07-06T00:23:33;101293.44;;;13.31;76.43
33075;BME280;19433;51.292;6.868;2022-07-06T00:25:58;101303.47;;;13.32;76.33
33075;BME280;19433;51.292;6.868;2022-07-06T00:28:24;101299.06;;;13.16;76.94
33075;BME280;19433;51.292;6.868;2022-07-06T00:30:49;101301.31;;;13.06;77.65
33075;BME280;19433;51.292;6.868;2022-07-06T00:33:15;101299.34;;;13.00;78.69
33075;BME280;19433;51.292;6.868;2022-07-06T00:35:40;101298.72;;;12.98;78.59
33075;BME280;19433;51.292;6.868;2022-07-06T00:38:06;101300.75;;;12.89;79.29
33075;BME280;19433;51.292;6.868;2022-07-06T00:40:31;101296.13;;;12.96;78.95
33075;BME280;19433;51.292;6.868;2022-07-06T00:42:57;101304.44;;;12.96;78.75
33075;BME280;19433;51.292;6.868;2022-07-06T00:45:22;101295.00;;;12.91;78.62
33075;BME280;19433;51.292;6.868;2022-07-06T00:47:48;101297.78;;;12.91;79.11
33075;BME280;19433;51.292;6.868;2022-07-06T00:50:15;101285.03;;;12.75;79.50
33075;BME280;19433;51.292;6.868;2022-07-06T00:52:51;101297.38;;;12.73;80.02
33075;BME280;19433;51.292;6.868;2022-07-06T00:55:22;101295.91;;;12.55;80.82
33075;BME280;19433;51.292;6.868;2022-07-06T00:57:48;101292.47;;;12.53;80.54
33075;BME280;19433;51.292;6.868;2022-07-06T01:00:15;101304.19;;;12.49;81.52
33075;BME280;19433;51.292;6.868;2022-07-06T01:02:41;101296.78;;;12.35;83.06
33075;BME280;19433;51.292;6.868;2022-07-06T01:05:09;101313.09;;;12.44;81.90
33075;BME280;19433;51.292;6.868;2022-07-06T01:07:35;101303.09;;;12.28;82.11
33075;BME280;19433;51.292;6.868;2022-07-06T01:10:05;101299.00;;;12.24;82.75
33075;BME280;19433;51.292;6.868;2022-07-06T01:12:31;101302.19;;;12.21;83.07
33075;BME280;19433;51.292;6.868;2022-07-06T01:14:59;101298.75;;;12.19;84.18
33075;BME280;19433;51.292;6.868;2022-07-06T01:17:25;101290.13;;;12.14;83.16
33075;BME280;19433;51.292;6.868;2022-07-06T01:19:51;101307.31;;;12.24;83.34
33075;BME280;19433;51.292;6.868;2022-07-06T01:22:16;101305.13;;;12.20;83.06
33075;BME280;19433;51.292;6.868;2022-07-06T01:24:41;101299.41;;;12.21;83.60
33075;BME280;19433;51.292;6.868;2022-07-06T01:27:07;101299.13;;;12.16;83.77
33075;BME280;19433;51.292;6.868;2022-07-06T01:29:33;101294.34;;;12.10;84.23
33075;BME280;19433;51.292;6.868;2022-07-06T01:31:59;101299.22;;;12.08;83.97
33075;BME280;19433;51.292;6.868;2022-07-06T01:34:25;101291.56;;;12.10;83.63
33075;BME280;19433;51.292;6.868;2022-07-06T01:36:50;101307.84;;;11.98;84.80
33075;BME280;19433;51.292;6.868;2022-07-06T01:39:15;101301.16;;;11.93;84.92
33075;BME280;19433;51.292;6.868;2022-07-06T01:41:41;101300.03;;;11.87;85.37
33075;BME280;19433;51.292;6.868;2022-07-06T01:44:06;101310.81;;;11.82;86.05
33075;BME280;19433;51.292;6.868;2022-07-06T01:46:32;101307.97;;;11.76;86.45
33075;BME280;19433;51.292;6.868;2022-07-06T01:48:58;101295.00;;;11.76;86.59
33075;BME280;19433;51.292;6.868;2022-07-06T01:51:24;101290.38;;;11.69;87.34
33075;BME280;19433;51.292;6.868;2022-07-06T01:53:50;101284.72;;;11.62;87.99
33075;BME280;19433;51.292;6.868;2022-07-06T01:56:15;101293.13;;;11.69;88.12
33075;BME280;19433;51.292;6.868;2022-07-06T01:58:42;101293.25;;;11.60;88.37
33075;BME280;19433;51.292;6.868;2022-07-06T02:01:13;101290.47;;;11.60;88.81
33075;BME280;19433;51.292;6.868;2022-07-06T02:03:39;101283.97;;;11.53;89.40
33075;BME280;19433;51.292;6.868;2022-07-06T02:06:05;101296.03;;;11.60;89.28
33075;BME280;19433;51.292;6.868;2022-07-06T02:08:32;101298.56;;;11.62;90.23
33075;BME280;19433;51.292;6.868;2022-07-06T02:10:57;101290.69;;;11.59;90.90
33075;BME280;19433;51.292;6.868;2022-07-06T02:13:23;101284.38;;;11.80;89.03
33075;BME280;19433;51.292;6.868;2022-07-06T02:15:48;101292.59;;;11.88;88.89
33075;BME280;19433;51.292;6.868;2022-07-06T02:18:14;101287.06;;;11.88;89.17
33075;BME280;19433;51.292;6.868;2022-07-06T02:20:39;101275.09;;;11.73;89.27
33075;BME280;19433;51.292;6.868;2022-07-06T02:23:05;101284.16;;;11.67;92.27
33075;BME280;19433;51.292;6.868;2022-07-06T02:25:30;101293.63;;;11.72;91.20
33075;BME280;19433;51.292;6.868;2022-07-06T02:27:56;101296.09;;;11.96;89.04
33075;BME280;19433;51.292;6.868;2022-07-06T02:30:21;101291.91;;;11.86;89.43
33075;BME280;19433;51.292;6.868;2022-07-06T02:32:47;101291.72;;;11.87;89.85
33075;BME280;19433;51.292;6.868;2022-07-06T02:35:12;101289.34;;;11.84;90.09
33075;BME280;19433;51.292;6.868;2022-07-06T02:37:38;101300.72;;;11.89;89.62
33075;BME280;19433;51.292;6.868;2022-07-06T02:40:04;101288.09;;;11.72;89.58
33075;BME280;19433;51.292;6.868;2022-07-06T02:42:29;101290.09;;;11.78;89.94
33075;BME280;19433;51.292;6.868;2022-07-06T02:44:55;101285.31;;;11.72;89.74
33075;BME280;19433;51.292;6.868;2022-07-06T02:47:21;101291.78;;;11.64;90.15
33075;BME280;19433;51.292;6.868;2022-07-06T02:49:46;101281.69;;;11.57;90.67
33075;BME280;19433;51.292;6.868;2022-07-06T02:52:11;101285.50;;;11.41;92.70
33075;BME280;19433;51.292;6.868;2022-07-06T02:54:36;101289.31;;;11.40;93.76
33075;BME280;19433;51.292;6.868;2022-07-06T02:57:02;101291.72;;;11.43;93.17
33075;BME280;19433;51.292;6.868;2022-07-06T02:59:27;101275.88;;;11.37;92.50
33075;BME280;19433;51.292;6.868;2022-07-06T03:01:52;101298.69;;;11.69;90.39
33075;BME280;19433;51.292;6.868;2022-07-06T03:04:18;101297.25;;;11.73;90.79
33075;BME280;19433;51.292;6.868;2022-07-06T03:06:43;101300.03;;;11.73;91.82
33075;BME280;19433;51.292;6.868;2022-07-06T03:09:08;101302.03;;;11.79;90.68
33075;BME280;19433;51.292;6.868;2022-07-06T03:11:34;101328.81;;;12.08;88.37
33075;BME280;19433;51.292;6.868;2022-07-06T03:14:05;101309.81;;;12.19;87.60
33075;BME280;19433;51.292;6.868;2022-07-06T03:16:31;101308.16;;;12.25;87.08
33075;BME280;19433;51.292;6.868;2022-07-06T03:18:57;101320.72;;;12.42;86.87
33075;BME280;19433;51.292;6.868;2022-07-06T03:21:24;101322.78;;;12.55;85.52
33075;BME280;19433;51.292;6.868;2022-07-06T03:23:49;101312.22;;;12.44;85.73
33075;BME280;19433;51.292;6.868;2022-07-06T03:26:14;101301.09;;;12.37;85.54
33075;BME280;19433;51.292;6.868;2022-07-06T03:28:40;101320.91;;;12.41;86.30
33075;BME280;19433;51.292;6.868;2022-07-06T03:31:05;101315.66;;;12.46;86.32
33075;BME280;19433;51.292;6.868;2022-07-06T03:33:30;101328.41;;;12.61;85.14
33075;BME280;19433;51.292;6.868;2022-07-06T03:35:56;101316.00;;;12.57;85.20
33075;BME280;19433;51.292;6.868;2022-07-06T03:38:21;101315.69;;;12.67;84.94
33075;BME280;19433;51.292;6.868;2022-07-06T03:40:46;101307.16;;;12.47;85.61
33075;BME280;19433;51.292;6.868;2022-07-06T03:43:11;101319.63;;;12.58;85.73
33075;BME280;19433;51.292;6.868;2022-07-06T03:45:37;101324.88;;;12.53;85.64
33075;BME280;19433;51.292;6.868;2022-07-06T03:48:02;101307.44;;;12.52;85.60
33075;BME280;19433;51.292;6.868;2022-07-06T03:50:28;101320.00;;;12.55;85.66
33075;BME280;19433;51.292;6.868;2022-07-06T03:52:53;101309.94;;;12.47;85.81
33075;BME280;19433;51.292;6.868;2022-07-06T03:55:18;101322.13;;;12.53;85.57
33075;BME280;19433;51.292;6.868;2022-07-06T03:57:44;101320.44;;;12.52;85.58
33075;BME280;19433;51.292;6.868;2022-07-06T04:00:09;101312.88;;;12.46;85.54
33075;BME280;19433;51.292;6.868;2022-07-06T04:02:35;101318.53;;;12.38;85.56
33075;BME280;19433;51.292;6.868;2022-07-06T04:05:00;101318.47;;;12.31;86.82
33075;BME280;19433;51.292;6.868;2022-07-06T04:07:26;101325.09;;;12.15;88.23
33075;BME280;19433;51.292;6.868;2022-07-06T04:09:51;101319.09;;;11.97;89.83
33075;BME280;19433;51.292;6.868;2022-07-06T04:12:16;101310.78;;;12.12;88.68
33075;BME280;19433;51.292;6.868;2022-07-06T04:14:42;101318.50;;;12.16;87.67
33075;BME280;19433;51.292;6.868;2022-07-06T04:17:07;101322.53;;;11.99;90.23
33075;BME280;19433;51.292;6.868;2022-07-06T04:20:09;101323.78;;;11.96;90.60
33075;BME280;19433;51.292;6.868;2022-07-06T04:22:38;101333.81;;;11.83;92.31
33075;BME280;19433;51.292;6.868;2022-07-06T04:25:03;101326.91;;;12.08;90.44
33075;BME280;19433;51.292;6.868;2022-07-06T04:27:29;101318.50;;;12.16;88.79
33075;BME280;19433;51.292;6.868;2022-07-06T04:29:54;101330.31;;;12.25;88.82
33075;BME280;19433;51.292;6.868;2022-07-06T04:32:19;101334.34;;;12.22;89.49
33075;BME280;19433;51.292;6.868;2022-07-06T04:34:44;101323.72;;;12.26;88.75
33075;BME280;19433;51.292;6.868;2022-07-06T04:37:10;101335.69;;;12.26;89.14
33075;BME280;19433;51.292;6.868;2022-07-06T04:39:35;101335.63;;;12.41;87.39
33075;BME280;19433;51.292;6.868;2022-07-06T04:42:00;101334.00;;;12.47;86.72
33075;BME280;19433;51.292;6.868;2022-07-06T04:44:26;101333.44;;;12.51;86.24
33075;BME280;19433;51.292;6.868;2022-07-06T04:46:51;101322.19;;;12.59;85.51
33075;BME280;19433;51.292;6.868;2022-07-06T04:49:16;101337.88;;;12.67;85.99
33075;BME280;19433;51.292;6.868;2022-07-06T04:51:41;101332.44;;;12.80;86.09
33075;BME280;19433;51.292;6.868;2022-07-06T04:54:07;101330.06;;;12.98;84.86
33075;BME280;19433;51.292;6.868;2022-07-06T04:56:32;101312.81;;;13.03;83.50
33075;BME280;19433;51.292;6.868;2022-07-06T04:58:57;101328.06;;;13.14;83.52
33075;BME280;19433;51.292;6.868;2022-07-06T05:01:23;101324.25;;;13.15;83.51
33075;BME280;19433;51.292;6.868;2022-07-06T05:03:48;101322.31;;;13.15;82.91
33075;BME280;19433;51.292;6.868;2022-07-06T05:06:13;101329.69;;;13.29;82.56
33075;BME280;19433;51.292;6.868;2022-07-06T05:08:39;101333.00;;;13.40;82.34
33075;BME280;19433;51.292;6.868;2022-07-06T05:11:05;101335.28;;;13.57;81.45
33075;BME280;19433;51.292;6.868;2022-07-06T05:13:30;101327.38;;;13.61;81.40
33075;BME280;19433;51.292;6.868;2022-07-06T05:15:55;101332.97;;;13.67;81.05
33075;BME280;19433;51.292;6.868;2022-07-06T05:18:20;101331.94;;;13.75;80.14
33075;BME280;19433;51.292;6.868;2022-07-06T05:20:46;101337.50;;;13.75;79.87
33075;BME280;19433;51.292;6.868;2022-07-06T05:23:13;101341.25;;;13.89;79.51
33075;BME280;19433;51.292;6.868;2022-07-06T05:25:38;101327.97;;;13.84;79.10
33075;BME280;19433;51.292;6.868;2022-07-06T05:28:03;101331.41;;;13.86;79.77
33075;BME280;19433;51.292;6.868;2022-07-06T05:30:29;101330.06;;;13.82;79.13
33075;BME280;19433;51.292;6.868;2022-07-06T05:32:54;101343.91;;;13.76;80.38
33075;BME280;19433;51.292;6.868;2022-07-06T05:35:19;101337.94;;;13.72;81.26
33075;BME280;19433;51.292;6.868;2022-07-06T05:37:45;101348.38;;;13.70;81.16
33075;BME280;19433;51.292;6.868;2022-07-06T05:40:11;101340.00;;;13.63;82.43
33075;BME280;19433;51.292;6.868;2022-07-06T05:42:36;101354.63;;;13.79;80.99
33075;BME280;19433;51.292;6.868;2022-07-06T05:45:01;101334.78;;;13.82;80.87
33075;BME280;19433;51.292;6.868;2022-07-06T05:47:29;101351.97;;;13.98;79.24
33075;BME280;19433;51.292;6.868;2022-07-06T05:50:26;101350.53;;;14.09;80.03
33075;BME280;19433;51.292;6.868;2022-07-06T05:52:57;101352.72;;;14.20;78.43
33075;BME280;19433;51.292;6.868;2022-07-06T05:55:23;101354.06;;;14.31;78.08
33075;BME280;19433;51.292;6.868;2022-07-06T05:57:48;101353.84;;;14.39;77.85
33075;BME280;19433;51.292;6.868;2022-07-06T06:00:15;101354.16;;;14.51;77.53
33075;BME280;19433;51.292;6.868;2022-07-06T06:02:41;101359.13;;;14.62;76.59
33075;BME280;19433;51.292;6.868;2022-07-06T06:05:08;101354.91;;;14.38;78.18
33075;BME280;19433;51.292;6.868;2022-07-06T06:07:35;101360.22;;;14.74;76.61
33075;BME280;19433;51.292;6.868;2022-07-06T06:10:08;101366.88;;;14.86;76.15
33075;BME280;19433;51.292;6.868;2022-07-06T06:12:34;101372.25;;;14.94;74.75
33075;BME280;19433;51.292;6.868;2022-07-06T06:15:00;101370.31;;;14.95;74.97
33075;BME280;19433;51.292;6.868;2022-07-06T06:17:26;101371.19;;;15.02;75.21
33075;BME280;19433;51.292;6.868;2022-07-06T06:19:51;101384.47;;;15.13;74.68
33075;BME280;19433;51.292;6.868;2022-07-06T06:22:17;101379.56;;;15.08;75.77
33075;BME280;19433;51.292;6.868;2022-07-06T06:24:42;101381.25;;;14.96;75.77
33075;BME280;19433;51.292;6.868;2022-07-06T06:27:07;101378.47;;;15.16;74.55
33075;BME280;19433;51.292;6.868;2022-07-06T06:29:32;101381.06;;;15.31;74.13
33075;BME280;19433;51.292;6.868;2022-07-06T06:31:58;101384.94;;;15.36;73.38
33075;BME280;19433;51.292;6.868;2022-07-06T06:34:23;101376.78;;;15.55;72.21
33075;BME280;19433;51.292;6.868;2022-07-06T06:36:49;101373.56;;;15.77;71.42
33075;BME280;19433;51.292;6.868;2022-07-06T06:39:14;101378.91;;;15.92;70.74
33075;BME280;19433;51.292;6.868;2022-07-06T06:41:39;101376.94;;;16.12;70.52
33075;BME280;19433;51.292;6.868;2022-07-06T06:44:05;101379.59;;;16.45;68.46
33075;BME280;19433;51.292;6.868;2022-07-06T06:46:30;101384.66;;;16.75;67.97
33075;BME280;19433;51.292;6.868;2022-07-06T06:48:55;101386.59;;;17.06;66.70
33075;BME280;19433;51.292;6.868;2022-07-06T06:51:20;101381.97;;;17.25;66.62
33075;BME280;19433;51.292;6.868;2022-07-06T06:53:46;101383.69;;;17.50;64.96
33075;BME280;19433;51.292;6.868;2022-07-06T06:56:12;101383.78;;;17.62;64.37
33075;BME280;19433;51.292;6.868;2022-07-06T06:58:37;101387.66;;;17.61;62.68
33075;BME280;19433;51.292;6.868;2022-07-06T07:01:03;101391.34;;;17.86;61.89
33075;BME280;19433;51.292;6.868;2022-07-06T07:03:29;101394.16;;;17.86;62.09
33075;BME280;19433;51.292;6.868;2022-07-06T07:05:54;101392.19;;;17.62;62.51
33075;BME280;19433;51.292;6.868;2022-07-06T07:08:19;101390.53;;;17.79;62.92
33075;BME280;19433;51.292;6.868;2022-07-06T07:10:45;101398.41;;;17.89;62.75
33075;BME280;19433;51.292;6.868;2022-07-06T07:13:10;101398.72;;;17.81;60.85
33075;BME280;19433;51.292;6.868;2022-07-06T07:15:35;101406.31;;;18.17;61.48
33075;BME280;19433;51.292;6.868;2022-07-06T07:18:01;101398.69;;;18.24;60.54
33075;BME280;19433;51.292;6.868;2022-07-06T07:20:26;101394.00;;;18.54;60.10
33075;BME280;19433;51.292;6.868;2022-07-06T07:22:52;101390.97;;;18.38;59.32
33075;BME280;19433;51.292;6.868;2022-07-06T07:25:18;101401.94;;;18.57;60.02
33075;BME280;19433;51.292;6.868;2022-07-06T07:27:43;101400.44;;;18.91;57.96
33075;BME280;19433;51.292;6.868;2022-07-06T07:30:09;101393.94;;;19.09;56.96
33075;BME280;19433;51.292;6.868;2022-07-06T07:32:34;101401.41;;;19.27;55.58
33075;BME280;19433;51.292;6.868;2022-07-06T07:34:59;101405.81;;;19.23;55.30
33075;BME280;19433;51.292;6.868;2022-07-06T07:37:25;101413.84;;;19.31;56.71
33075;BME280;19433;51.292;6.868;2022-07-06T07:39:50;101413.59;;;19.62;54.13
33075;BME280;19433;51.292;6.868;2022-07-06T07:42:15;101405.22;;;19.32;56.51
33075;BME280;19433;51.292;6.868;2022-07-06T07:44:41;101397.91;;;19.31;55.23
33075;BME280;19433;51.292;6.868;2022-07-06T07:47:06;101400.53;;;19.15;53.45
33075;BME280;19433;51.292;6.868;2022-07-06T07:49:32;101402.47;;;19.14;55.19
33075;BME280;19433;51.292;6.868;2022-07-06T07:51:57;101413.44;;;19.57;55.14
33075;BME280;19433;51.292;6.868;2022-07-06T07:54:23;101417.50;;;19.73;53.18
33075;BME280;19433;51.292;6.868;2022-07-06T07:56:48;101422.38;;;19.66;53.82
33075;BME280;19433;51.292;6.868;2022-07-06T07:59:13;101406.66;;;19.77;51.37
33075;BME280;19433;51.292;6.868;2022-07-06T08:01:39;101416.16;;;19.76;53.94
33075;BME280;19433;51.292;6.868;2022-07-06T08:04:05;101424.63;;;19.46;52.03
33075;BME280;19433;51.292;6.868;2022-07-06T08:06:30;101413.56;;;19.51;52.90
33075;BME280;19433;51.292;6.868;2022-07-06T08:08:55;101407.53;;;20.00;50.76
33075;BME280;19433;51.292;6.868;2022-07-06T08:11:21;101415.69;;;19.67;51.21
33075;BME280;19433;51.292;6.868;2022-07-06T08:13:46;101409.69;;;19.52;53.24
33075;BME280;19433;51.292;6.868;2022-07-06T08:16:12;101417.03;;;19.76;50.13
33075;BME280;19433;51.292;6.868;2022-07-06T08:18:37;101408.59;;;19.64;51.04
33075;BME280;19433;51.292;6.868;2022-07-06T08:21:03;101399.00;;;19.84;51.47
33075;BME280;19433;51.292;6.868;2022-07-06T08:23:29;101402.28;;;19.92;51.84
33075;BME280;19433;51.292;6.868;2022-07-06T08:25:54;101404.72;;;20.24;51.43
33075;BME280;19433;51.292;6.868;2022-07-06T08:28:20;101407.25;;;20.60;50.01
33075;BME280;19433;51.292;6.868;2022-07-06T08:30:46;101408.50;;;20.81;49.81
33075;BME280;19433;51.292;6.868;2022-07-06T08:33:12;101411.03;;;20.94;46.96
33075;BME280;19433;51.292;6.868;2022-07-06T08:35:38;101410.13;;;21.05;45.46
33075;BME280;19433;51.292;6.868;2022-07-06T08:38:03;101407.28;;;21.17;47.82
33075;BME280;19433;51.292;6.868;2022-07-06T08:40:33;101407.50;;;21.44;45.60
33075;BME280;19433;51.292;6.868;2022-07-06T08:43:00;101404.84;;;21.99;44.94
33075;BME280;19433;51.292;6.868;2022-07-06T08:45:25;101399.34;;;21.93;44.70
33075;BME280;19433;51.292;6.868;2022-07-06T08:47:53;101415.03;;;22.61;41.98
33075;BME280;19433;51.292;6.868;2022-07-06T08:50:19;101397.84;;;23.33;43.49
33075;BME280;19433;51.292;6.868;2022-07-06T08:52:49;101411.78;;;25.03;39.79
33075;BME280;19433;51.292;6.868;2022-07-06T08:55:16;101408.19;;;26.24;36.80
33075;BME280;19433;51.292;6.868;2022-07-06T08:57:45;101412.91;;;27.34;34.08
33075;BME280;19433;51.292;6.868;2022-07-06T09:00:11;101414.88;;;28.40;33.08
33075;BME280;19433;51.292;6.868;2022-07-06T09:02:37;101422.53;;;30.24;28.68
33075;BME280;19433;51.292;6.868;2022-07-06T09:05:04;101421.13;;;30.67;27.69
33075;BME280;19433;51.292;6.868;2022-07-06T09:07:29;101420.44;;;29.78;29.38
33075;BME280;19433;51.292;6.868;2022-07-06T09:09:55;101424.16;;;28.22;29.34
33075;BME280;19433;51.292;6.868;2022-07-06T09:12:26;101417.84;;;27.62;28.38
33075;BME280;19433;51.292;6.868;2022-07-06T09:14:55;101405.50;;;26.78;30.97
33075;BME280;19433;51.292;6.868;2022-07-06T09:17:20;101418.44;;;26.10;32.16
33075;BME280;19433;51.292;6.868;2022-07-06T09:19:45;101415.81;;;25.37;31.60
33075;BME280;19433;51.292;6.868;2022-07-06T09:22:28;101399.72;;;24.65;31.11
33075;BME280;19433;51.292;6.868;2022-07-06T09:25:01;101402.09;;;23.62;32.63
33075;BME280;19433;51.292;6.868;2022-07-06T09:27:26;101395.53;;;23.89;33.89
33075;BME280;19433;51.292;6.868;2022-07-06T09:29:52;101390.38;;;23.75;33.87
33075;BME280;19433;51.292;6.868;2022-07-06T09:32:20;101395.97;;;24.07;33.83
33075;BME280;19433;51.292;6.868;2022-07-06T09:34:46;101395.47;;;25.35;32.58
33075;BME280;19433;51.292;6.868;2022-07-06T09:37:13;101403.34;;;25.38;32.26
33075;BME280;19433;51.292;6.868;2022-07-06T09:39:39;101403.41;;;25.69;30.15
33075;BME280;19433;51.292;6.868;2022-07-06T09:42:06;101407.84;;;25.24;31.33
33075;BME280;19433;51.292;6.868;2022-07-06T09:44:39;101404.34;;;24.92;32.75
33075;BME280;19433;51.292;6.868;2022-07-06T09:47:06;101408.50;;;26.12;31.51
33075;BME280;19433;51.292;6.868;2022-07-06T09:49:33;101405.09;;;26.41;30.89
33075;BME280;19433;51.292;6.868;2022-07-06T09:52:01;101404.88;;;27.85;28.32
33075;BME280;19433;51.292;6.868;2022-07-06T09:54:27;101411.66;;;27.89;29.77
33075;BME280;19433;51.292;6.868;2022-07-06T09:56:53;101408.19;;;27.19;30.49
33075;BME280;19433;51.292;6.868;2022-07-06T09:59:21;101412.19;;;27.08;29.34
33075;BME280;19433;51.292;6.868;2022-07-06T10:01:48;101414.00;;;26.83;29.97
33075;BME280;19433;51.292;6.868;2022-07-06T10:04:15;101410.63;;;27.80;28.36
33075;BME280;19433;51.292;6.868;2022-07-06T10:06:44;101406.13;;;28.02;28.25
33075;BME280;19433;51.292;6.868;2022-07-06T10:09:10;101409.38;;;28.49;27.53
33075;BME280;19433;51.292;6.868;2022-07-06T10:11:41;101407.13;;;28.17;27.13
33075;BME280;19433;51.292;6.868;2022-07-06T10:14:07;101400.13;;;29.28;26.90
33075;BME280;19433;51.292;6.868;2022-07-06T10:16:38;101412.28;;;29.53;26.46
33075;BME280;19433;51.292;6.868;2022-07-06T10:19:08;101408.34;;;29.30;24.71
33075;BME280;19433;51.292;6.868;2022-07-06T10:21:38;101419.72;;;30.05;23.67
33075;BME280;19433;51.292;6.868;2022-07-06T10:24:05;101422.25;;;31.21;22.04
33075;BME280;19433;51.292;6.868;2022-07-06T10:26:32;101418.88;;;31.19;23.47
33075;BME280;19433;51.292;6.868;2022-07-06T10:28:58;101422.00;;;32.26;21.25
33075;BME280;19433;51.292;6.868;2022-07-06T10:31:25;101419.66;;;32.98;20.69
33075;BME280;19433;51.292;6.868;2022-07-06T10:33:52;101408.63;;;31.54;22.62
33075;BME280;19433;51.292;6.868;2022-07-06T10:36:17;101410.75;;;30.99;23.20
33075;BME280;19433;51.292;6.868;2022-07-06T10:38:48;101401.78;;;29.86;24.17
33075;BME280;19433;51.292;6.868;2022-07-06T10:41:14;101403.41;;;29.35;26.25
33075;BME280;19433;51.292;6.868;2022-07-06T10:43:44;101405.19;;;29.69;22.81
33075;BME280;19433;51.292;6.868;2022-07-06T10:46:16;101401.09;;;29.37;25.48
33075;BME280;19433;51.292;6.868;2022-07-06T10:48:47;101399.81;;;28.11;25.07
33075;BME280;19433;51.292;6.868;2022-07-06T10:51:25;101404.59;;;27.47;26.18
33075;BME280;19433;51.292;6.868;2022-07-06T10:53:59;101402.31;;;26.90;28.09
33075;BME280;19433;51.292;6.868;2022-07-06T10:56:42;101398.25;;;26.52;27.67
33075;BME280;19433;51.292;6.868;2022-07-06T10:59:16;101390.81;;;26.66;28.19
33075;BME280;19433;51.292;6.868;2022-07-06T11:02:12;101395.47;;;26.26;27.57
33075;BME280;19433;51.292;6.868;2022-07-06T11:04:45;101388.09;;;26.25;27.47
33075;BME280;19433;51.292;6.868;2022-07-06T11:07:12;101380.44;;;25.19;31.36
33075;BME280;19433;51.292;6.868;2022-07-06T11:09:39;101389.84;;;25.76;30.86
33075;BME280;19433;51.292;6.868;2022-07-06T11:12:17;101386.13;;;26.06;29.21
33075;BME280;19433;51.292;6.868;2022-07-06T11:14:44;101385.78;;;27.61;27.30
33075;BME280;19433;51.292;6.868;2022-07-06T11:17:10;101388.13;;;28.12;25.75
33075;BME280;19433;51.292;6.868;2022-07-06T11:19:36;101389.44;;;28.73;26.05
33075;BME280;19433;51.292;6.868;2022-07-06T11:22:07;101390.19;;;28.59;25.34
33075;BME280;19433;51.292;6.868;2022-07-06T11:24:35;101389.28;;;27.43;27.85
33075;BME280;19433;51.292;6.868;2022-07-06T11:27:00;101379.50;;;27.64;26.23
33075;BME280;19433;51.292;6.868;2022-07-06T11:29:27;101380.25;;;26.87;29.60
33075;BME280;19433;51.292;6.868;2022-07-06T11:31:55;101369.38;;;26.35;30.02
33075;BME280;19433;51.292;6.868;2022-07-06T11:34:28;101379.31;;;26.17;28.57
33075;BME280;19433;51.292;6.868;2022-07-06T11:36:57;101380.19;;;25.82;29.10
33075;BME280;19433;51.292;6.868;2022-07-06T11:39:26;101365.97;;;26.43;28.00
33075;BME280;19433;51.292;6.868;2022-07-06T11:41:54;101379.38;;;27.36;28.42
33075;BME280;19433;51.292;6.868;2022-07-06T11:44:19;101366.47;;;28.21;26.26
33075;BME280;19433;51.292;6.868;2022-07-06T11:46:45;101365.34;;;27.59;27.88
33075;BME280;19433;51.292;6.868;2022-07-06T11:49:10;101378.47;;;28.13;26.47
33075;BME280;19433;51.292;6.868;2022-07-06T11:51:40;101374.03;;;27.34;28.64
33075;BME280;19433;51.292;6.868;2022-07-06T11:54:11;101368.28;;;26.10;28.12
33075;BME280;19433;51.292;6.868;2022-07-06T11:56:37;101367.78;;;25.78;30.04
33075;BME280;19433;51.292;6.868;2022-07-06T11:59:03;101376.44;;;25.05;31.63
33075;BME280;19433;51.292;6.868;2022-07-06T12:01:29;101363.38;;;24.27;33.77
33075;BME280;19433;51.292;6.868;2022-07-06T12:04:00;101373.28;;;24.34;33.80
33075;BME280;19433;51.292;6.868;2022-07-06T12:06:27;101366.59;;;23.66;35.72
33075;BME280;19433;51.292;6.868;2022-07-06T12:08:55;101365.75;;;23.39;36.47
33075;BME280;19433;51.292;6.868;2022-07-06T12:11:25;101356.78;;;23.15;36.20
33075;BME280;19433;51.292;6.868;2022-07-06T12:13:51;101353.91;;;23.10;36.36
33075;BME280;19433;51.292;6.868;2022-07-06T12:16:18;101364.56;;;23.03;36.86
33075;BME280;19433;51.292;6.868;2022-07-06T12:18:46;101355.53;;;22.79;36.35
33075;BME280;19433;51.292;6.868;2022-07-06T12:21:14;101348.06;;;22.90;35.80
33075;BME280;19433;51.292;6.868;2022-07-06T12:23:48;101339.81;;;22.83;35.18
33075;BME280;19433;51.292;6.868;2022-07-06T12:26:15;101338.13;;;22.60;36.96
33075;BME280;19433;51.292;6.868;2022-07-06T12:28:42;101346.47;;;22.99;39.44
33075;BME280;19433;51.292;6.868;2022-07-06T12:31:08;101341.88;;;23.83;35.29
33075;BME280;19433;51.292;6.868;2022-07-06T12:33:34;101336.91;;;24.48;32.54
33075;BME280;19433;51.292;6.868;2022-07-06T12:36:10;101330.13;;;24.44;33.23
33075;BME280;19433;51.292;6.868;2022-07-06T12:38:46;101338.25;;;25.03;31.29
33075;BME280;19433;51.292;6.868;2022-07-06T12:41:27;101321.28;;;25.08;32.56
33075;BME280;19433;51.292;6.868;2022-07-06T12:44:04;101325.28;;;25.88;30.86
33075;BME280;19433;51.292;6.868;2022-07-06T12:46:38;101327.56;;;25.76;30.54
33075;BME280;19433;51.292;6.868;2022-07-06T12:51:59;101319.53;;;24.86;33.85